Estación de Pirque

Ultimos registro cada 15 minutos 91
Estación Fecha / Hora Temperatura Humedad Lluvia Velocidad Dirección Radiación Presion
91 Pirque 30-08-2026 22:30 9,4 92,7 0,2 0 303 0,6 943,7
90 Pirque 30-08-2026 22:15 9,4 91,5 0 0 306 0,6 943,3
89 Pirque 30-08-2026 22:00 9,5 89,7 0,8 0 275 0,6 943,5
88 Pirque 30-08-2026 21:45 9,3 88,5 2,6 0 355 0,6 942,4
87 Pirque 30-08-2026 21:30 10,1 91,9 0 0 338 0,6 943,2
86 Pirque 30-08-2026 21:15 10 91,3 0 0 336 0,6 942,3
85 Pirque 30-08-2026 21:00 10 89,6 0 0 341 0,6 942,2
84 Pirque 30-08-2026 20:45 10,4 86,4 1 0,5 355 0,6 942
83 Pirque 30-08-2026 20:30 11,6 80 0 0,5 298 0,6 942,4
82 Pirque 30-08-2026 20:15 11,8 78,4 0 0 268 0,6 941,5
81 Pirque 30-08-2026 20:00 12,5 73,3 0 0 260 0,6 941,2
80 Pirque 30-08-2026 19:45 12,7 73,1 0 0 275 0,6 940,9
79 Pirque 30-08-2026 19:30 13,1 71,3 0 0 279 0,6 940,8
78 Pirque 30-08-2026 19:15 13,2 70,2 0 0 281 0,6 940,9
77 Pirque 30-08-2026 19:00 12,6 71,8 0 0 281 0,6 940,3
76 Pirque 30-08-2026 18:45 12,7 69,9 0 0 281 0,6 940,2
75 Pirque 30-08-2026 18:30 12,9 68,8 0 0 281 0,6 939,9
74 Pirque 30-08-2026 18:15 13,5 67,3 0 0 275 5,6 939,6
73 Pirque 30-08-2026 18:00 14 64,3 0 0,5 264 24,4 939,4
72 Pirque 30-08-2026 17:45 14,2 65,3 0 0 264 29,4 939,5
71 Pirque 30-08-2026 17:30 14,5 65,5 0 0 275 41,9 939,5
70 Pirque 30-08-2026 17:15 14,7 64,5 0 0 275 66,9 939,4
69 Pirque 30-08-2026 17:00 14,9 63,6 0 0 274 50,6 939,7
68 Pirque 30-08-2026 16:45 15,3 62,5 0 0 274 93,1 939,3
67 Pirque 30-08-2026 16:30 15,3 61,8 0 0 265 63,1 939,5
66 Pirque 30-08-2026 16:15 15,7 60,8 0 0 263 115,6 939,5
65 Pirque 30-08-2026 16:00 15,8 60,7 0 0 270 124,4 939,4
64 Pirque 30-08-2026 15:45 16,1 58,8 0 0 268 178,1 939
63 Pirque 30-08-2026 15:30 16,9 56,6 0 0 256 279,4 939,1
62 Pirque 30-08-2026 15:15 16,4 57,6 0 0 263 254,4 939,2
61 Pirque 30-08-2026 15:00 17 55,8 0 0 250 240,6 939,2
60 Pirque 30-08-2026 14:45 17,7 55,5 0 0 253 669,4 939,2
59 Pirque 30-08-2026 14:30 18 54,8 0 0 256 466,9 939,1
58 Pirque 30-08-2026 14:15 18,2 53,9 0 0 248 225,6 939
57 Pirque 30-08-2026 14:00 17,9 54,4 0 0 268 278,1 939
56 Pirque 30-08-2026 13:45 18,2 52 0 0 275 184,4 939,1
55 Pirque 30-08-2026 13:30 18,3 54,7 0 0 260 759,4 939,2
54 Pirque 30-08-2026 13:15 17,2 54,5 0 0 279 385,6 939,2
53 Pirque 30-08-2026 13:00 18,6 52,3 0 0 292 596,9 939,5
52 Pirque 30-08-2026 12:45 17,8 53,6 0 0 292 740,6 939,6
51 Pirque 30-08-2026 12:30 17,7 56,3 0 0 257 751,9 939,5
50 Pirque 30-08-2026 12:15 17,4 53,6 0 0 261 723,1 939,9
49 Pirque 30-08-2026 12:00 17,4 52,5 0 0 299 716,9 939,6
48 Pirque 30-08-2026 11:45 18 51,4 0 0 278 701,9 939,8
47 Pirque 30-08-2026 11:30 17,5 53,6 0 0 275 693,1 939,6
46 Pirque 30-08-2026 11:15 17,5 53,7 0 0 288 671,9 939,5
45 Pirque 30-08-2026 11:00 17,6 51,6 0 0 289 645,6 939,7
44 Pirque 30-08-2026 10:45 16,7 52,6 0 0 288 615,6 939,7
43 Pirque 30-08-2026 10:30 16,6 52,4 0 0 288 580,6 939,6
42 Pirque 30-08-2026 10:15 16,1 51 0 0 286 545,6 939,5
41 Pirque 30-08-2026 10:00 16,3 53 0 0 281 506,9 939,3
40 Pirque 30-08-2026 09:45 15,6 60,5 0 0 281 463,1 939,3
39 Pirque 30-08-2026 09:30 15,2 63,5 0 0 279 418,1 939,4
38 Pirque 30-08-2026 09:15 13,4 71,2 0 0 279 369,4 938,9
37 Pirque 30-08-2026 09:00 11,2 79,4 0 0 279 319,4 938,9
36 Pirque 30-08-2026 08:45 12,2 79,8 0 0 279 270,6 938,8
35 Pirque 30-08-2026 08:30 10,9 85,8 0 0 279 233,1 938,8
34 Pirque 30-08-2026 08:15 7,9 90,8 0 0 278 194,4 938,8
33 Pirque 30-08-2026 08:00 5,7 93,7 0 0 278 151,9 938,6
32 Pirque 30-08-2026 07:45 3 95,1 0 0 278 93,1 938,7
31 Pirque 30-08-2026 07:30 2 95,4 0 0 278 10,6 938,3
30 Pirque 30-08-2026 07:15 2 95,7 0 0 282 4,4 938,2
29 Pirque 30-08-2026 07:00 2,1 95,5 0 0 288 0,6 938,1
28 Pirque 30-08-2026 06:45 2 95,7 0 0 285 0,6 937,8
27 Pirque 30-08-2026 06:30 1,3 95,5 0 0 285 0,6 937,8
26 Pirque 30-08-2026 06:15 1,6 95,4 0 0 285 0,6 937,6
25 Pirque 30-08-2026 06:00 1,7 95,5 0 0 285 0,6 937,7
24 Pirque 30-08-2026 05:45 2,1 95,5 0 0 285 0,6 937,6
23 Pirque 30-08-2026 05:30 2,3 95,4 0 0 285 0,6 937,5
22 Pirque 30-08-2026 05:15 2,3 95,2 0 0 285 0,6 937,4
21 Pirque 30-08-2026 05:00 2,1 95,2 0 0 285 0,6 937,3
20 Pirque 30-08-2026 04:45 2 95 0 0 285 0,6 937,3
19 Pirque 30-08-2026 04:30 2,1 94,3 0 0 285 0,6 937,2
18 Pirque 30-08-2026 04:15 2,6 94,4 0 0 285 0,6 937,4
17 Pirque 30-08-2026 04:00 2,4 94,6 0 0 285 0,6 937
16 Pirque 30-08-2026 03:45 2,4 93,6 0 0 285 0,6 937
15 Pirque 30-08-2026 03:30 2,6 93,9 0 0 285 0,6 937,3
14 Pirque 30-08-2026 03:15 2,5 93,5 0 0 285 0,6 937,3
13 Pirque 30-08-2026 03:00 3 93,1 0 0 285 0,6 937,3
12 Pirque 30-08-2026 02:45 3 93,1 0 0 285 0,6 937,4
11 Pirque 30-08-2026 02:30 3,1 92,7 0 0 279 0,6 937,5
10 Pirque 30-08-2026 02:15 3,3 93,4 0 0 271 0,6 937,5
9 Pirque 30-08-2026 02:00 3,4 92,7 0 0 271 0,6 937,6
8 Pirque 30-08-2026 01:45 3,5 92,2 0 0 271 0,6 937,8
7 Pirque 30-08-2026 01:30 3 91,7 0 0 270 0,6 938,1
6 Pirque 30-08-2026 01:15 4 92,8 0 0 270 0,6 938
5 Pirque 30-08-2026 01:00 4 91,7 0 0 270 0,6 937,8
4 Pirque 30-08-2026 00:45 4,2 91,3 0 0 270 0,6 938,3
3 Pirque 30-08-2026 00:30 4,4 91,1 0 0 270 0,6 938,1
2 Pirque 30-08-2026 00:15 4 91,6 0 0 270 0,6 938,4
1 Pirque 30-08-2026 00:00 4,8 90,6 0 0 270 0,6 938,5